sensor_id;sensor_type;location;lat;lon;timestamp;temperature;humidity
3980;DHT22;2004;52.452;13.120;2024-03-02T00:02:27;6.50;99.90
3980;DHT22;2004;52.452;13.120;2024-03-02T00:10:25;6.50;99.90
3980;DHT22;2004;52.452;13.120;2024-03-02T00:18:34;6.60;99.90
3980;DHT22;2004;52.452;13.120;2024-03-02T00:26:29;6.60;99.90
3980;DHT22;2004;52.452;13.120;2024-03-02T00:34:23;6.60;99.90
3980;DHT22;2004;52.452;13.120;2024-03-02T00:42:15;6.60;99.90
3980;DHT22;2004;52.452;13.120;2024-03-02T00:50:09;6.60;99.90
3980;DHT22;2004;52.452;13.120;2024-03-02T00:58:02;6.70;99.90
3980;DHT22;2004;52.452;13.120;2024-03-02T01:05:53;6.70;99.90
3980;DHT22;2004;52.452;13.120;2024-03-02T01:13:45;6.70;99.90
3980;DHT22;2004;52.452;13.120;2024-03-02T01:21:36;6.70;99.90
3980;DHT22;2004;52.452;13.120;2024-03-02T01:29:28;6.70;99.90
3980;DHT22;2004;52.452;13.120;2024-03-02T01:37:18;6.70;99.90
3980;DHT22;2004;52.452;13.120;2024-03-02T01:45:09;6.80;99.90
3980;DHT22;2004;52.452;13.120;2024-03-02T01:53:01;6.80;99.90
3980;DHT22;2004;52.452;13.120;2024-03-02T02:00:53;6.80;99.90
3980;DHT22;2004;52.452;13.120;2024-03-02T02:08:47;6.80;99.90
3980;DHT22;2004;52.452;13.120;2024-03-02T02:16:37;6.90;99.90
3980;DHT22;2004;52.452;13.120;2024-03-02T02:24:28;6.90;99.90
3980;DHT22;2004;52.452;13.120;2024-03-02T02:32:19;6.80;99.90
3980;DHT22;2004;52.452;13.120;2024-03-02T02:40:10;6.80;99.90
3980;DHT22;2004;52.452;13.120;2024-03-02T02:48:02;6.90;99.90
3980;DHT22;2004;52.452;13.120;2024-03-02T02:55:53;6.90;99.90
3980;DHT22;2004;52.452;13.120;2024-03-02T03:03:46;6.90;99.90
3980;DHT22;2004;52.452;13.120;2024-03-02T03:11:36;6.90;99.90
3980;DHT22;2004;52.452;13.120;2024-03-02T03:19:27;7.00;99.90
3980;DHT22;2004;52.452;13.120;2024-03-02T03:27:18;7.10;99.90
3980;DHT22;2004;52.452;13.120;2024-03-02T03:35:10;7.10;99.90
3980;DHT22;2004;52.452;13.120;2024-03-02T03:43:00;7.30;99.90
3980;DHT22;2004;52.452;13.120;2024-03-02T03:50:51;7.30;99.90
3980;DHT22;2004;52.452;13.120;2024-03-02T03:58:42;7.40;99.90
3980;DHT22;2004;52.452;13.120;2024-03-02T04:06:34;7.50;99.90
3980;DHT22;2004;52.452;13.120;2024-03-02T04:14:25;7.60;99.90
3980;DHT22;2004;52.452;13.120;2024-03-02T04:22:21;7.60;99.90
3980;DHT22;2004;52.452;13.120;2024-03-02T04:30:12;7.60;99.90
3980;DHT22;2004;52.452;13.120;2024-03-02T04:38:03;7.70;99.90
3980;DHT22;2004;52.452;13.120;2024-03-02T04:45:54;7.80;99.90
3980;DHT22;2004;52.452;13.120;2024-03-02T04:53:46;7.80;99.90
3980;DHT22;2004;52.452;13.120;2024-03-02T05:01:37;7.80;99.90
3980;DHT22;2004;52.452;13.120;2024-03-02T05:09:38;7.80;99.90
3980;DHT22;2004;52.452;13.120;2024-03-02T05:17:30;7.90;99.90
3980;DHT22;2004;52.452;13.120;2024-03-02T05:25:25;7.90;99.90
3980;DHT22;2004;52.452;13.120;2024-03-02T05:33:18;7.90;99.90
3980;DHT22;2004;52.452;13.120;2024-03-02T05:41:10;7.90;99.90
3980;DHT22;2004;52.452;13.120;2024-03-02T05:49:03;7.90;99.90
3980;DHT22;2004;52.452;13.120;2024-03-02T05:57:07;7.90;99.90
3980;DHT22;2004;52.452;13.120;2024-03-02T06:05:08;7.90;99.90
3980;DHT22;2004;52.452;13.120;2024-03-02T06:12:59;7.90;99.90
3980;DHT22;2004;52.452;13.120;2024-03-02T06:20:50;7.90;99.90
3980;DHT22;2004;52.452;13.120;2024-03-02T06:28:42;7.90;99.90
3980;DHT22;2004;52.452;13.120;2024-03-02T06:36:53;7.90;99.90
3980;DHT22;2004;52.452;13.120;2024-03-02T06:44:43;7.90;99.90
3980;DHT22;2004;52.452;13.120;2024-03-02T06:52:35;8.00;99.90
3980;DHT22;2004;52.452;13.120;2024-03-02T07:00:26;8.00;99.90
3980;DHT22;2004;52.452;13.120;2024-03-02T07:08:21;8.00;99.90
3980;DHT22;2004;52.452;13.120;2024-03-02T07:16:16;8.10;99.90
3980;DHT22;2004;52.452;13.120;2024-03-02T07:24:20;8.10;99.90
3980;DHT22;2004;52.452;13.120;2024-03-02T07:32:19;8.10;99.90
3980;DHT22;2004;52.452;13.120;2024-03-02T07:40:10;8.20;99.90
3980;DHT22;2004;52.452;13.120;2024-03-02T07:48:04;8.20;99.90
3980;DHT22;2004;52.452;13.120;2024-03-02T07:55:56;8.30;99.90
3980;DHT22;2004;52.452;13.120;2024-03-02T08:03:52;8.30;99.90
3980;DHT22;2004;52.452;13.120;2024-03-02T08:11:46;8.30;99.90
3980;DHT22;2004;52.452;13.120;2024-03-02T08:19:40;8.30;99.90
3980;DHT22;2004;52.452;13.120;2024-03-02T08:27:33;8.40;99.90
3980;DHT22;2004;52.452;13.120;2024-03-02T08:35:25;8.40;99.90
3980;DHT22;2004;52.452;13.120;2024-03-02T08:43:20;8.50;99.90
3980;DHT22;2004;52.452;13.120;2024-03-02T08:51:10;8.50;99.90
3980;DHT22;2004;52.452;13.120;2024-03-02T08:59:01;8.50;99.90
3980;DHT22;2004;52.452;13.120;2024-03-02T09:07:02;8.60;99.90
3980;DHT22;2004;52.452;13.120;2024-03-02T09:14:56;8.60;99.90
3980;DHT22;2004;52.452;13.120;2024-03-02T09:22:48;8.70;99.90
3980;DHT22;2004;52.452;13.120;2024-03-02T09:30:48;8.70;99.90
3980;DHT22;2004;52.452;13.120;2024-03-02T09:38:40;8.80;99.90
3980;DHT22;2004;52.452;13.120;2024-03-02T09:46:33;8.90;99.90
3980;DHT22;2004;52.452;13.120;2024-03-02T09:54:26;8.90;99.90
3980;DHT22;2004;52.452;13.120;2024-03-02T10:02:17;8.90;99.90
3980;DHT22;2004;52.452;13.120;2024-03-02T10:10:15;9.00;99.90
3980;DHT22;2004;52.452;13.120;2024-03-02T10:18:26;9.20;99.90
3980;DHT22;2004;52.452;13.120;2024-03-02T10:26:22;9.30;99.90
3980;DHT22;2004;52.452;13.120;2024-03-02T10:34:22;9.50;99.90
3980;DHT22;2004;52.452;13.120;2024-03-02T10:42:14;9.70;99.90
3980;DHT22;2004;52.452;13.120;2024-03-02T10:50:05;9.80;99.90
3980;DHT22;2004;52.452;13.120;2024-03-02T10:58:03;9.90;99.90
3980;DHT22;2004;52.452;13.120;2024-03-02T11:05:56;10.00;99.90
3980;DHT22;2004;52.452;13.120;2024-03-02T11:13:56;10.10;99.90
3980;DHT22;2004;52.452;13.120;2024-03-02T11:22:08;10.20;99.90
3980;DHT22;2004;52.452;13.120;2024-03-02T11:30:00;10.30;99.90
3980;DHT22;2004;52.452;13.120;2024-03-02T11:38:20;10.50;99.90
3980;DHT22;2004;52.452;13.120;2024-03-02T11:46:17;10.70;99.90
3980;DHT22;2004;52.452;13.120;2024-03-02T11:54:45;10.70;99.90
3980;DHT22;2004;52.452;13.120;2024-03-02T12:02:44;10.90;99.90
3980;DHT22;2004;52.452;13.120;2024-03-02T12:10:56;11.10;99.90
3980;DHT22;2004;52.452;13.120;2024-03-02T12:18:55;11.20;99.90
3980;DHT22;2004;52.452;13.120;2024-03-02T12:27:05;11.30;99.90
3980;DHT22;2004;52.452;13.120;2024-03-02T12:35:10;11.30;99.90
3980;DHT22;2004;52.452;13.120;2024-03-02T12:43:06;11.50;99.90
3980;DHT22;2004;52.452;13.120;2024-03-02T12:51:05;11.50;99.90
3980;DHT22;2004;52.452;13.120;2024-03-02T12:59:03;11.60;99.90
3980;DHT22;2004;52.452;13.120;2024-03-02T13:06:57;11.60;99.90
3980;DHT22;2004;52.452;13.120;2024-03-02T13:14:51;11.60;99.90
3980;DHT22;2004;52.452;13.120;2024-03-02T13:22:44;11.60;99.90
3980;DHT22;2004;52.452;13.120;2024-03-02T13:30:35;11.70;99.90
3980;DHT22;2004;52.452;13.120;2024-03-02T13:38:28;11.80;99.90
3980;DHT22;2004;52.452;13.120;2024-03-02T13:46:20;11.90;99.90
3980;DHT22;2004;52.452;13.120;2024-03-02T13:54:12;12.00;99.90
3980;DHT22;2004;52.452;13.120;2024-03-02T14:02:04;12.20;99.90
3980;DHT22;2004;52.452;13.120;2024-03-02T14:09:59;12.20;99.90
3980;DHT22;2004;52.452;13.120;2024-03-02T14:17:58;12.30;99.90
3980;DHT22;2004;52.452;13.120;2024-03-02T14:25:49;12.30;99.90
3980;DHT22;2004;52.452;13.120;2024-03-02T14:33:42;12.40;99.90
3980;DHT22;2004;52.452;13.120;2024-03-02T14:41:36;12.40;99.90
3980;DHT22;2004;52.452;13.120;2024-03-02T14:49:27;12.50;99.90
3980;DHT22;2004;52.452;13.120;2024-03-02T14:57:29;12.50;99.90
3980;DHT22;2004;52.452;13.120;2024-03-02T15:05:23;12.50;99.90
3980;DHT22;2004;52.452;13.120;2024-03-02T15:13:19;12.50;99.90
3980;DHT22;2004;52.452;13.120;2024-03-02T15:21:13;12.50;99.90
3980;DHT22;2004;52.452;13.120;2024-03-02T15:29:07;12.50;99.90
3980;DHT22;2004;52.452;13.120;2024-03-02T15:37:10;12.40;99.90
3980;DHT22;2004;52.452;13.120;2024-03-02T15:45:02;12.40;99.90
3980;DHT22;2004;52.452;13.120;2024-03-02T15:52:56;12.40;99.90
3980;DHT22;2004;52.452;13.120;2024-03-02T16:00:53;12.30;99.90
3980;DHT22;2004;52.452;13.120;2024-03-02T16:08:46;12.30;99.90
3980;DHT22;2004;52.452;13.120;2024-03-02T16:16:43;12.20;99.90
3980;DHT22;2004;52.452;13.120;2024-03-02T16:24:34;12.10;99.90
3980;DHT22;2004;52.452;13.120;2024-03-02T16:32:25;12.00;99.90
3980;DHT22;2004;52.452;13.120;2024-03-02T16:40:19;11.80;99.90
3980;DHT22;2004;52.452;13.120;2024-03-02T16:48:30;11.70;99.90
3980;DHT22;2004;52.452;13.120;2024-03-02T16:56:24;11.50;99.90
3980;DHT22;2004;52.452;13.120;2024-03-02T17:04:20;11.30;99.90
3980;DHT22;2004;52.452;13.120;2024-03-02T17:12:11;11.20;99.90
3980;DHT22;2004;52.452;13.120;2024-03-02T17:20:11;11.10;99.90
3980;DHT22;2004;52.452;13.120;2024-03-02T17:28:25;11.00;99.90
3980;DHT22;2004;52.452;13.120;2024-03-02T17:36:19;10.90;99.90
3980;DHT22;2004;52.452;13.120;2024-03-02T17:44:11;10.70;99.90
3980;DHT22;2004;52.452;13.120;2024-03-02T17:52:12;10.60;99.90
3980;DHT22;2004;52.452;13.120;2024-03-02T18:00:06;10.50;99.90
3980;DHT22;2004;52.452;13.120;2024-03-02T18:08:00;10.40;99.90
3980;DHT22;2004;52.452;13.120;2024-03-02T18:16:13;10.30;99.90
3980;DHT22;2004;52.452;13.120;2024-03-02T18:24:16;10.20;99.90
3980;DHT22;2004;52.452;13.120;2024-03-02T18:32:07;10.10;99.90
3980;DHT22;2004;52.452;13.120;2024-03-02T18:40:05;10.00;99.90
3980;DHT22;2004;52.452;13.120;2024-03-02T18:47:57;9.90;99.90
3980;DHT22;2004;52.452;13.120;2024-03-02T18:55:49;9.80;99.90
3980;DHT22;2004;52.452;13.120;2024-03-02T19:03:43;9.60;99.90
3980;DHT22;2004;52.452;13.120;2024-03-02T19:11:48;9.60;99.90
3980;DHT22;2004;52.452;13.120;2024-03-02T19:19:41;9.50;99.90
3980;DHT22;2004;52.452;13.120;2024-03-02T19:27:37;9.40;99.90
3980;DHT22;2004;52.452;13.120;2024-03-02T19:35:35;9.30;99.90
3980;DHT22;2004;52.452;13.120;2024-03-02T19:43:31;9.20;99.90
3980;DHT22;2004;52.452;13.120;2024-03-02T19:51:29;9.10;99.90
3980;DHT22;2004;52.452;13.120;2024-03-02T19:59:22;9.00;99.90
3980;DHT22;2004;52.452;13.120;2024-03-02T20:07:17;8.90;99.90
3980;DHT22;2004;52.452;13.120;2024-03-02T20:15:13;8.80;99.90
3980;DHT22;2004;52.452;13.120;2024-03-02T20:23:13;8.80;99.90
3980;DHT22;2004;52.452;13.120;2024-03-02T20:31:05;8.70;99.90
3980;DHT22;2004;52.452;13.120;2024-03-02T20:38:56;8.70;99.90
3980;DHT22;2004;52.452;13.120;2024-03-02T20:46:49;8.70;99.90
3980;DHT22;2004;52.452;13.120;2024-03-02T20:54:43;8.60;99.90
3980;DHT22;2004;52.452;13.120;2024-03-02T21:02:37;8.60;99.90
3980;DHT22;2004;52.452;13.120;2024-03-02T21:10:29;8.50;99.90
3980;DHT22;2004;52.452;13.120;2024-03-02T21:18:21;8.50;99.90
3980;DHT22;2004;52.452;13.120;2024-03-02T21:26:12;8.40;99.90
3980;DHT22;2004;52.452;13.120;2024-03-02T21:34:06;8.40;99.90
3980;DHT22;2004;52.452;13.120;2024-03-02T21:42:02;8.30;99.90
3980;DHT22;2004;52.452;13.120;2024-03-02T21:49:57;8.30;99.90
3980;DHT22;2004;52.452;13.120;2024-03-02T21:57:48;8.30;99.90
3980;DHT22;2004;52.452;13.120;2024-03-02T22:05:39;8.30;99.90
3980;DHT22;2004;52.452;13.120;2024-03-02T22:13:32;8.30;99.90
3980;DHT22;2004;52.452;13.120;2024-03-02T22:21:23;8.20;99.90
3980;DHT22;2004;52.452;13.120;2024-03-02T22:29:16;8.20;99.90
3980;DHT22;2004;52.452;13.120;2024-03-02T22:37:07;8.10;99.90
3980;DHT22;2004;52.452;13.120;2024-03-02T22:44:59;8.10;99.90
3980;DHT22;2004;52.452;13.120;2024-03-02T22:52:49;8.10;99.90
3980;DHT22;2004;52.452;13.120;2024-03-02T23:00:49;8.00;99.90
3980;DHT22;2004;52.452;13.120;2024-03-02T23:08:48;8.00;99.90
3980;DHT22;2004;52.452;13.120;2024-03-02T23:16:38;7.90;99.90
3980;DHT22;2004;52.452;13.120;2024-03-02T23:24:34;7.90;99.90
3980;DHT22;2004;52.452;13.120;2024-03-02T23:32:34;7.80;99.90
3980;DHT22;2004;52.452;13.120;2024-03-02T23:40:25;7.70;99.90
3980;DHT22;2004;52.452;13.120;2024-03-02T23:48:38;7.60;99.90
3980;DHT22;2004;52.452;13.120;2024-03-02T23:56:32;7.60;99.90
